Cedarbutte, South Dakota
Current Conditions -  °F | °C
As of 3:55 PM on Wednesday 28 Jan 2015 (Local Time) from KPHP Reporting Station
Few Clouds Few Clouds  
Wind Chill: 56°   Ceiling: Unl
Heat Index: 56°   Visibility: 10mi
Dew Point: 27°   Wind: 29mph
Humidity: 33%   Direction: 330°NNW
Pressure: 29.88"   Gusts: 44mph
Location:  43.6197°N, 100.883°W
Report Text: KPHP 282155Z AUTO 33025G38KT 10SM FEW100 13/M03 A2988 RMK AO2 PK WND 32041/2134 SLP119 T01331028
Loading
Personal Weather Stations






























Interactive Weather Map New forecast layout! Learn more

10-Day Weather Forecast

Advertisements
Track Severe Weather on mobile